createdAt,value
2019-03-27T00:01:07.114Z,7.94
2019-03-27T00:03:39.329Z,8.01
2019-03-27T00:06:11.325Z,8.03
2019-03-27T00:08:43.043Z,7.97
2019-03-27T00:11:16.299Z,7.88
2019-03-27T00:13:48.208Z,7.88
2019-03-27T00:16:19.897Z,8.00
2019-03-27T00:18:51.634Z,8.02
2019-03-27T00:21:23.360Z,7.98
2019-03-27T00:23:55.080Z,7.86
2019-03-27T00:26:26.741Z,7.98
2019-03-27T00:28:58.959Z,7.90
2019-03-27T00:31:30.663Z,7.90
2019-03-27T00:34:02.486Z,7.96
2019-03-27T00:36:34.204Z,7.91
2019-03-27T00:39:07.567Z,7.90
2019-03-27T00:41:39.322Z,7.99
2019-03-27T00:44:11.072Z,7.91
2019-03-27T00:46:43.178Z,7.97
2019-03-27T00:49:15.336Z,7.82
2019-03-27T00:51:47.111Z,7.95
2019-03-27T00:54:19.180Z,7.86
2019-03-27T00:56:51.247Z,7.87
2019-03-27T00:59:22.989Z,7.90
2019-03-27T01:01:55.481Z,7.84
2019-03-27T01:04:27.212Z,7.95
2019-03-27T01:07:00.326Z,7.96
2019-03-27T01:09:32.189Z,8.05
2019-03-27T01:12:03.945Z,7.93
2019-03-27T01:14:35.656Z,7.81
2019-03-27T01:17:07.331Z,7.92
2019-03-27T01:19:39.113Z,7.89
2019-03-27T01:22:10.753Z,7.83
2019-03-27T01:24:42.472Z,7.83
2019-03-27T01:27:14.201Z,7.94
2019-03-27T01:29:47.168Z,7.84
2019-03-27T01:32:18.906Z,7.78
2019-03-27T01:34:50.625Z,7.91
2019-03-27T01:37:24.403Z,7.89
2019-03-27T01:39:56.428Z,7.86
2019-03-27T01:42:28.201Z,7.78
2019-03-27T01:44:59.989Z,7.82
2019-03-27T01:47:31.641Z,7.83
2019-03-27T01:50:03.384Z,7.93
2019-03-27T01:52:44.669Z,7.85
2019-03-27T01:55:16.403Z,7.88
2019-03-27T01:57:48.468Z,7.87
2019-03-27T02:00:20.224Z,7.83
2019-03-27T02:02:51.969Z,7.73
2019-03-27T02:05:23.710Z,7.79
2019-03-27T02:07:55.333Z,7.80
2019-03-27T02:10:27.048Z,7.78
2019-03-27T02:12:59.331Z,7.74
2019-03-27T02:15:31.039Z,7.69
2019-03-27T02:18:02.782Z,7.76
2019-03-27T02:20:34.585Z,7.83
2019-03-27T02:23:06.402Z,7.81
2019-03-27T02:25:39.406Z,7.89
2019-03-27T02:28:11.098Z,7.86
2019-03-27T02:30:42.853Z,7.76
2019-03-27T02:33:14.627Z,7.91
2019-03-27T02:35:46.358Z,7.80
2019-03-27T02:38:18.091Z,7.71
2019-03-27T02:40:49.869Z,7.70
2019-03-27T02:43:22.574Z,7.68
2019-03-27T02:45:54.358Z,7.71
2019-03-27T02:48:26.510Z,7.68
2019-03-27T02:50:58.216Z,7.74
2019-03-27T02:53:29.966Z,7.83
2019-03-27T02:56:01.784Z,7.84
2019-03-27T02:58:33.474Z,7.73
2019-03-27T03:01:05.890Z,7.76
2019-03-27T03:03:37.678Z,7.64
2019-03-27T03:06:09.373Z,7.61
2019-03-27T03:08:41.072Z,7.69
2019-03-27T03:11:12.812Z,7.66
2019-03-27T03:13:44.579Z,7.58
2019-03-27T03:16:16.266Z,7.59
2019-03-27T03:18:48.008Z,7.54
2019-03-27T03:21:19.736Z,7.50
2019-03-27T03:23:51.423Z,7.64
2019-03-27T03:26:23.236Z,7.54
2019-03-27T03:28:54.988Z,7.50
2019-03-27T03:31:32.180Z,7.54
2019-03-27T03:34:03.963Z,7.48
2019-03-27T03:36:35.652Z,7.67
2019-03-27T03:39:08.291Z,7.54
2019-03-27T03:41:40.034Z,7.64
2019-03-27T03:44:11.805Z,7.65
2019-03-27T03:46:58.769Z,7.59
2019-03-27T03:49:16.902Z,7.55
2019-03-27T03:51:48.650Z,7.64
2019-03-27T03:54:21.068Z,7.61
2019-03-27T03:56:55.635Z,7.73
2019-03-27T03:59:29.397Z,7.57
2019-03-27T04:02:03.945Z,7.54
2019-03-27T04:04:37.275Z,7.61
2019-03-27T04:07:09.030Z,7.78
2019-03-27T04:09:40.708Z,7.62
2019-03-27T04:12:12.465Z,7.56
2019-03-27T04:14:44.162Z,7.51
2019-03-27T04:17:17.794Z,7.68
2019-03-27T04:19:49.361Z,7.52
2019-03-27T04:22:21.149Z,7.56
2019-03-27T04:24:52.828Z,7.54
2019-03-27T04:27:24.518Z,7.56
2019-03-27T04:29:56.688Z,7.59
2019-03-27T04:32:28.413Z,7.61
2019-03-27T04:35:00.541Z,7.61
2019-03-27T04:37:32.293Z,7.61
2019-03-27T04:40:04.038Z,7.74
2019-03-27T04:42:36.232Z,7.74
2019-03-27T04:45:07.952Z,7.70
2019-03-27T04:47:39.856Z,7.81
2019-03-27T04:50:11.614Z,7.89
2019-03-27T04:52:44.684Z,7.76
2019-03-27T04:55:16.386Z,7.87
2019-03-27T04:57:48.206Z,7.89
2019-03-27T05:00:19.889Z,7.84
2019-03-27T05:02:51.987Z,7.67
2019-03-27T05:05:24.922Z,7.77
2019-03-27T05:07:57.147Z,7.72
2019-03-27T05:10:28.840Z,7.77
2019-03-27T05:13:00.559Z,7.74
2019-03-27T05:15:32.317Z,7.82
2019-03-27T05:18:04.144Z,7.90
2019-03-27T05:20:36.074Z,7.87
2019-03-27T05:23:07.789Z,7.79
2019-03-27T05:25:39.556Z,7.91
2019-03-27T05:28:14.420Z,7.93
2019-03-27T05:30:46.222Z,7.93
2019-03-27T05:33:17.893Z,7.90
2019-03-27T05:35:49.692Z,7.99
2019-03-27T05:38:22.468Z,8.04
2019-03-27T05:40:54.343Z,8.02
2019-03-27T05:43:26.152Z,8.09
2019-03-27T05:45:58.887Z,7.99
2019-03-27T05:48:31.778Z,8.06
2019-03-27T05:51:03.577Z,7.97
2019-03-27T05:53:35.297Z,7.98
2019-03-27T05:56:07.401Z,7.95
2019-03-27T05:58:39.461Z,7.95
2019-03-27T06:01:11.244Z,8.09
2019-03-27T06:03:44.009Z,8.15
2019-03-27T06:06:15.828Z,8.00
2019-03-27T06:08:47.655Z,8.07
2019-03-27T06:11:19.421Z,8.19
2019-03-27T06:13:57.209Z,8.25
2019-03-27T06:16:28.937Z,8.27
2019-03-27T06:19:01.000Z,8.26
2019-03-27T06:21:34.089Z,8.29
2019-03-27T06:24:05.914Z,8.32
2019-03-27T06:26:37.645Z,8.12
2019-03-27T06:29:09.398Z,8.24
2019-03-27T06:31:42.001Z,8.33
2019-03-27T06:34:13.760Z,8.33
2019-03-27T06:36:45.560Z,8.45
2019-03-27T06:39:20.567Z,8.51
2019-03-27T06:41:52.443Z,8.43
2019-03-27T06:44:24.177Z,8.44
2019-03-27T06:46:55.977Z,8.45
2019-03-27T06:49:27.664Z,8.32
2019-03-27T06:52:00.457Z,8.41
2019-03-27T06:54:32.217Z,8.41
2019-03-27T06:57:03.952Z,8.47
2019-03-27T06:59:36.719Z,8.35
2019-03-27T07:02:09.068Z,8.30
2019-03-27T07:04:41.123Z,8.32
2019-03-27T07:07:12.905Z,8.43
2019-03-27T07:09:44.690Z,8.54
2019-03-27T07:12:21.420Z,8.66
2019-03-27T07:14:50.718Z,8.78
2019-03-27T07:17:22.553Z,8.42
2019-03-27T07:19:55.470Z,8.50
2019-03-27T07:22:27.181Z,8.48
2019-03-27T07:24:59.310Z,8.47
2019-03-27T07:27:31.059Z,8.46
2019-03-27T07:30:02.865Z,8.54
2019-03-27T07:32:35.501Z,8.39
2019-03-27T07:35:09.276Z,8.51
2019-03-27T07:37:41.245Z,8.49
2019-03-27T07:40:13.418Z,8.48
2019-03-27T07:42:47.120Z,8.65
2019-03-27T07:45:18.928Z,8.80
2019-03-27T07:47:50.660Z,8.63
2019-03-27T07:50:22.423Z,8.34
2019-03-27T07:52:54.230Z,8.43
2019-03-27T07:55:25.955Z,8.52
2019-03-27T07:57:57.713Z,8.57
2019-03-27T08:00:29.446Z,8.57
2019-03-27T08:03:01.625Z,8.34
2019-03-27T08:05:33.452Z,8.28
2019-03-27T08:08:05.243Z,8.18
2019-03-27T08:10:39.462Z,8.37
2019-03-27T08:13:11.423Z,8.39
2019-03-27T08:15:43.225Z,8.62
2019-03-27T08:18:15.403Z,8.48
2019-03-27T08:20:47.272Z,8.50
2019-03-27T08:23:19.431Z,8.60
2019-03-27T08:25:51.232Z,8.66
2019-03-27T08:28:22.986Z,8.66
2019-03-27T08:31:14.429Z,8.93
2019-03-27T08:33:46.232Z,9.12
2019-03-27T08:36:18.065Z,9.01
2019-03-27T08:38:50.355Z,9.10
2019-03-27T08:41:22.113Z,9.00
2019-03-27T08:43:53.999Z,8.89
2019-03-27T08:46:25.739Z,8.75
2019-03-27T08:48:57.758Z,8.85
2019-03-27T08:51:29.513Z,8.68
2019-03-27T08:54:02.533Z,8.87
2019-03-27T08:56:34.234Z,8.87
2019-03-27T08:59:06.333Z,8.79
2019-03-27T09:01:38.038Z,8.90
2019-03-27T09:04:09.738Z,9.06
2019-03-27T09:06:41.570Z,9.05
2019-03-27T09:09:13.664Z,9.31
2019-03-27T09:11:45.436Z,9.31
2019-03-27T09:14:17.241Z,9.27
2019-03-27T09:16:49.264Z,9.43
2019-03-27T09:19:34.635Z,9.29
2019-03-27T09:21:54.491Z,9.42
2019-03-27T09:24:27.518Z,9.36
2019-03-27T09:26:59.311Z,9.32
2019-03-27T09:29:31.890Z,9.01
2019-03-27T09:32:03.616Z,9.08
2019-03-27T09:34:35.404Z,9.30
2019-03-27T09:37:08.057Z,9.23
2019-03-27T09:39:39.833Z,9.27
2019-03-27T09:42:12.705Z,9.23
2019-03-27T09:44:45.968Z,9.08
2019-03-27T09:47:18.464Z,9.17
2019-03-27T09:49:50.244Z,9.42
2019-03-27T09:52:24.566Z,9.36
2019-03-27T09:54:56.981Z,9.07
2019-03-27T09:57:28.794Z,9.13
2019-03-27T10:00:00.593Z,9.29
2019-03-27T10:02:35.318Z,9.62
2019-03-27T10:05:12.998Z,9.69
2019-03-27T10:07:45.080Z,9.74
2019-03-27T10:10:16.865Z,9.49
2019-03-27T10:15:26.161Z,9.47
2019-03-27T10:17:59.695Z,9.56
2019-03-27T10:20:31.728Z,9.43
2019-03-27T10:23:08.840Z,9.42
2019-03-27T10:25:40.518Z,9.24
2019-03-27T10:28:12.422Z,9.37
2019-03-27T10:30:44.336Z,9.46
2019-03-27T10:33:16.392Z,9.61
2019-03-27T10:35:48.158Z,9.52
2019-03-27T10:38:19.977Z,9.39
2019-03-27T10:40:51.690Z,9.29
2019-03-27T10:43:23.582Z,9.40
2019-03-27T10:45:55.590Z,9.43
2019-03-27T10:48:55.279Z,9.54
2019-03-27T10:51:27.085Z,9.43
2019-03-27T10:53:58.809Z,9.49
2019-03-27T10:56:31.073Z,9.70
2019-03-27T10:59:06.606Z,9.70
2019-03-27T11:01:38.550Z,9.80
2019-03-27T11:04:10.302Z,9.91
2019-03-27T11:07:28.982Z,9.96
2019-03-27T11:10:00.948Z,9.95
2019-03-27T11:12:32.835Z,9.86
2019-03-27T11:15:06.482Z,10.05
2019-03-27T11:17:38.693Z,9.94
2019-03-27T11:20:10.702Z,9.91
2019-03-27T11:22:42.880Z,9.94
2019-03-27T11:25:15.590Z,10.17
2019-03-27T11:27:47.428Z,10.15
2019-03-27T11:30:20.709Z,10.18
2019-03-27T11:32:58.524Z,10.03
2019-03-27T11:35:30.672Z,9.91
2019-03-27T11:38:02.485Z,9.96
2019-03-27T11:40:34.395Z,10.07
2019-03-27T11:43:06.830Z,10.19
2019-03-27T11:45:39.278Z,10.31
2019-03-27T11:48:11.158Z,10.31
2019-03-27T11:50:45.064Z,10.49
2019-03-27T11:53:17.496Z,10.40
2019-03-27T11:56:03.537Z,10.36
2019-03-27T11:58:35.376Z,10.30
2019-03-27T12:01:07.236Z,10.15
2019-03-27T12:03:43.597Z,10.12
2019-03-27T12:06:15.377Z,10.25
2019-03-27T12:08:50.804Z,10.07
2019-03-27T12:11:22.981Z,9.94
2019-03-27T12:13:55.114Z,9.93
2019-03-27T12:16:28.584Z,10.13
2019-03-27T12:19:02.251Z,10.25
2019-03-27T12:21:34.849Z,10.35
2019-03-27T12:24:06.723Z,10.35
2019-03-27T12:26:42.045Z,10.26
2019-03-27T12:29:13.917Z,10.10
2019-03-27T12:31:45.884Z,9.93
2019-03-27T12:34:17.794Z,10.05
2019-03-27T12:36:50.143Z,10.09
2019-03-27T12:39:21.972Z,10.03
2019-03-27T12:41:54.056Z,10.15
2019-03-27T12:44:25.835Z,10.06
2019-03-27T12:46:57.640Z,9.91
2019-03-27T12:49:29.427Z,9.85
2019-03-27T12:52:01.878Z,9.87
2019-03-27T12:54:34.386Z,10.04
2019-03-27T12:57:06.126Z,10.10
2019-03-27T12:59:38.035Z,9.82
2019-03-27T13:02:09.747Z,9.74
2019-03-27T13:04:42.248Z,9.84
2019-03-27T13:07:14.645Z,9.93
2019-03-27T13:09:46.830Z,10.05
2019-03-27T13:12:18.675Z,10.06
2019-03-27T13:14:52.159Z,10.14
2019-03-27T13:17:24.082Z,10.13
2019-03-27T13:19:57.096Z,10.03
2019-03-27T13:22:29.760Z,9.77
2019-03-27T13:25:02.911Z,9.96
2019-03-27T13:27:34.848Z,9.93
2019-03-27T13:30:07.385Z,9.95
2019-03-27T13:32:39.384Z,9.85
2019-03-27T13:35:11.822Z,9.93
2019-03-27T13:37:43.749Z,9.86
2019-03-27T13:40:15.851Z,9.90
2019-03-27T13:42:47.911Z,9.95
2019-03-27T13:45:22.371Z,10.03
2019-03-27T13:47:54.438Z,9.93
2019-03-27T13:50:27.293Z,9.90
2019-03-27T13:52:59.666Z,9.95
2019-03-27T13:55:35.045Z,9.93
2019-03-27T13:58:07.552Z,9.99
2019-03-27T14:00:39.836Z,10.16
2019-03-27T14:03:12.237Z,10.13
2019-03-27T14:05:45.449Z,10.13
2019-03-27T14:08:17.993Z,10.14
2019-03-27T14:10:50.229Z,10.28
2019-03-27T14:13:22.416Z,10.25
2019-03-27T14:15:55.144Z,10.05
2019-03-27T14:18:27.027Z,10.03
2019-03-27T14:20:58.950Z,10.10
2019-03-27T14:23:31.674Z,10.17
2019-03-27T14:26:03.942Z,10.07
2019-03-27T14:28:36.799Z,10.20
2019-03-27T14:31:08.897Z,10.23
2019-03-27T14:33:42.078Z,10.35
2019-03-27T14:36:14.129Z,10.12
2019-03-27T14:38:45.958Z,10.20
2019-03-27T14:41:17.836Z,10.21
2019-03-27T14:43:49.770Z,10.05
2019-03-27T14:46:21.586Z,10.07
2019-03-27T14:48:53.484Z,10.14
2019-03-27T14:51:25.675Z,10.00
2019-03-27T14:53:59.213Z,10.15
2019-03-27T14:56:31.324Z,10.14
2019-03-27T14:59:03.062Z,10.05
2019-03-27T15:01:36.079Z,10.08
2019-03-27T15:04:08.075Z,9.93
2019-03-27T15:06:40.916Z,9.93
2019-03-27T15:09:12.700Z,9.86
2019-03-27T15:11:44.576Z,9.92
2019-03-27T15:14:17.948Z,9.89
2019-03-27T15:16:51.664Z,9.86
2019-03-27T15:19:23.804Z,9.89
2019-03-27T15:21:56.503Z,9.93
2019-03-27T15:24:29.359Z,9.95
2019-03-27T15:27:01.426Z,10.01
2019-03-27T15:29:33.707Z,10.04
2019-03-27T15:32:06.556Z,9.95
2019-03-27T15:34:38.543Z,9.94
2019-03-27T15:37:10.325Z,9.94
2019-03-27T15:39:42.712Z,10.01
2019-03-27T15:42:14.499Z,9.88
2019-03-27T15:44:49.644Z,9.91
2019-03-27T15:47:19.984Z,9.84
2019-03-27T15:49:52.181Z,9.98
2019-03-27T15:52:35.663Z,9.85
2019-03-27T15:54:57.953Z,9.89
2019-03-27T15:57:30.372Z,9.84
2019-03-27T16:00:02.859Z,9.79
2019-03-27T16:02:36.867Z,9.73
2019-03-27T16:05:09.017Z,9.74
2019-03-27T16:07:43.670Z,9.65
2019-03-27T16:10:18.401Z,9.73
2019-03-27T16:12:49.349Z,9.69
2019-03-27T16:15:22.081Z,9.67
2019-03-27T16:17:53.947Z,9.61
2019-03-27T16:20:27.224Z,9.63
2019-03-27T16:22:59.698Z,9.68
2019-03-27T16:25:31.624Z,9.57
2019-03-27T16:28:03.630Z,9.56
2019-03-27T16:30:36.816Z,9.54
2019-03-27T16:33:08.826Z,9.61
2019-03-27T16:35:42.325Z,9.55
2019-03-27T16:38:14.134Z,9.58
2019-03-27T16:40:49.745Z,9.50
2019-03-27T16:43:21.636Z,9.49
2019-03-27T16:45:53.469Z,9.49
2019-03-27T16:48:26.904Z,9.44
2019-03-27T16:50:58.714Z,9.47
2019-03-27T16:53:30.587Z,9.51
2019-03-27T16:56:02.445Z,9.52
2019-03-27T16:58:34.179Z,9.50
2019-03-27T17:01:06.590Z,9.56
2019-03-27T17:03:38.663Z,9.76
2019-03-27T17:06:12.592Z,9.70
2019-03-27T17:08:44.364Z,9.60
2019-03-27T17:11:16.201Z,9.60
2019-03-27T17:13:48.100Z,9.58
2019-03-27T17:16:19.809Z,9.53
2019-03-27T17:18:51.796Z,9.52
2019-03-27T17:21:23.657Z,9.46
2019-03-27T17:23:55.480Z,9.42
2019-03-27T17:26:27.399Z,9.40
2019-03-27T17:29:00.240Z,9.47
2019-03-27T17:31:32.109Z,9.48
2019-03-27T17:34:03.920Z,9.47
2019-03-27T17:36:38.232Z,9.49
2019-03-27T17:39:11.029Z,9.47
2019-03-27T17:41:42.901Z,9.39
2019-03-27T17:44:14.692Z,9.45
2019-03-27T17:46:49.934Z,9.41
2019-03-27T17:49:21.896Z,9.33
2019-03-27T17:51:54.212Z,9.42
2019-03-27T17:54:26.106Z,9.34
2019-03-27T17:56:57.866Z,9.33
2019-03-27T17:59:29.827Z,9.30
2019-03-27T18:02:01.561Z,9.34
2019-03-27T18:04:33.699Z,9.24
2019-03-27T18:07:05.358Z,9.20
2019-03-27T18:09:37.080Z,9.32
2019-03-27T18:12:09.500Z,9.29
2019-03-27T18:14:41.430Z,9.19
2019-03-27T18:17:13.181Z,9.18
2019-03-27T18:19:46.001Z,9.26
2019-03-27T18:22:18.279Z,9.21
2019-03-27T18:24:50.105Z,9.33
2019-03-27T18:27:22.309Z,9.13
2019-03-27T18:29:54.816Z,9.11
2019-03-27T18:32:26.537Z,9.17
2019-03-27T18:34:58.358Z,9.12
2019-03-27T18:37:30.147Z,9.13
2019-03-27T18:40:01.988Z,9.04
2019-03-27T18:42:35.119Z,9.02
2019-03-27T18:45:07.381Z,9.04
2019-03-27T18:47:39.556Z,9.03
2019-03-27T18:50:12.472Z,9.00
2019-03-27T18:52:44.171Z,9.01
2019-03-27T18:55:25.913Z,8.96
2019-03-27T18:57:59.951Z,9.09
2019-03-27T19:00:23.951Z,9.06
2019-03-27T19:02:55.851Z,9.03
2019-03-27T19:05:27.723Z,9.08
2019-03-27T19:07:59.513Z,9.03
2019-03-27T19:10:31.222Z,9.08
2019-03-27T19:13:03.025Z,9.12
2019-03-27T19:15:34.721Z,8.99
2019-03-27T19:18:06.443Z,8.95
2019-03-27T19:20:38.206Z,8.92
2019-03-27T19:23:09.927Z,8.98
2019-03-27T19:25:41.957Z,8.93
2019-03-27T19:28:13.641Z,8.98
2019-03-27T19:30:45.474Z,9.01
2019-03-27T19:33:17.210Z,8.93
2019-03-27T19:35:49.039Z,9.04
2019-03-27T19:38:20.918Z,8.95
2019-03-27T19:40:52.671Z,8.99
2019-03-27T19:43:24.463Z,8.92
2019-03-27T19:46:01.419Z,9.02
2019-03-27T19:48:33.352Z,9.03
2019-03-27T19:51:05.446Z,8.95
2019-03-27T19:53:37.584Z,8.88
2019-03-27T19:56:09.301Z,8.88
2019-03-27T19:58:41.151Z,8.89
2019-03-27T20:01:13.130Z,8.83
2019-03-27T20:03:45.335Z,8.85
2019-03-27T20:06:17.626Z,8.89
2019-03-27T20:08:50.163Z,8.84
2019-03-27T20:11:21.857Z,8.84
2019-03-27T20:13:53.671Z,8.85
2019-03-27T20:16:28.654Z,8.79
2019-03-27T20:19:00.433Z,8.79
2019-03-27T20:21:32.588Z,8.83
2019-03-27T20:24:04.732Z,8.79
2019-03-27T20:26:36.547Z,8.83
2019-03-27T20:29:08.358Z,8.84
2019-03-27T20:31:40.179Z,8.81
2019-03-27T20:34:13.156Z,8.81
2019-03-27T20:36:45.852Z,8.81
2019-03-27T20:39:17.591Z,8.87
2019-03-27T20:41:49.608Z,8.97
2019-03-27T20:44:22.458Z,8.91
2019-03-27T20:46:54.218Z,8.91
2019-03-27T20:49:26.040Z,8.93
2019-03-27T20:51:57.810Z,9.04
2019-03-27T20:54:29.584Z,9.07
2019-03-27T20:57:01.905Z,8.99
2019-03-27T20:59:33.691Z,8.91
2019-03-27T21:02:08.676Z,8.88
2019-03-27T21:04:40.822Z,8.88
2019-03-27T21:07:13.214Z,8.90
2019-03-27T21:09:45.494Z,8.99
2019-03-27T21:12:17.260Z,8.94
2019-03-27T21:14:49.020Z,8.86
2019-03-27T21:17:20.825Z,8.89
2019-03-27T21:19:53.200Z,8.88
2019-03-27T21:22:24.946Z,8.88
2019-03-27T21:25:08.154Z,8.96
2019-03-27T21:27:31.329Z,8.89
2019-03-27T21:30:03.243Z,8.90
2019-03-27T21:32:36.114Z,8.93
2019-03-27T21:35:08.849Z,8.93
2019-03-27T21:37:41.204Z,8.94
2019-03-27T21:40:13.332Z,8.91
2019-03-27T21:42:45.293Z,8.93
2019-03-27T21:45:17.184Z,8.91
2019-03-27T21:47:49.000Z,8.87
2019-03-27T21:50:20.749Z,8.83
2019-03-27T21:53:00.459Z,8.91
2019-03-27T21:55:26.461Z,8.95
2019-03-27T21:57:58.175Z,8.97
2019-03-27T22:00:40.024Z,8.94
2019-03-27T22:03:12.220Z,8.87
2019-03-27T22:05:43.950Z,8.92
2019-03-27T22:08:15.746Z,8.91
2019-03-27T22:10:47.501Z,8.90
2019-03-27T22:13:19.662Z,8.90
2019-03-27T22:15:52.386Z,8.85
2019-03-27T22:18:24.626Z,8.89
2019-03-27T22:20:56.894Z,8.89
2019-03-27T22:23:30.967Z,8.80
2019-03-27T22:26:02.613Z,8.82
2019-03-27T22:28:34.340Z,8.86
2019-03-27T22:31:06.061Z,8.81
2019-03-27T22:33:37.828Z,8.74
2019-03-27T22:36:09.960Z,8.80
2019-03-27T22:38:41.671Z,8.79
2019-03-27T22:41:13.786Z,8.77
2019-03-27T22:43:45.535Z,8.85
2019-03-27T22:46:17.275Z,8.88
2019-03-27T22:48:49.381Z,8.85
2019-03-27T22:51:21.122Z,8.79
2019-03-27T22:53:53.439Z,8.81
2019-03-27T22:56:25.137Z,8.81
2019-03-27T22:58:56.921Z,8.83
2019-03-27T23:01:37.329Z,8.83
2019-03-27T23:04:09.147Z,8.82
2019-03-27T23:06:40.904Z,8.91
2019-03-27T23:09:13.286Z,8.72
2019-03-27T23:11:45.180Z,8.79
2019-03-27T23:14:16.976Z,8.82
2019-03-27T23:16:49.223Z,8.81
2019-03-27T23:19:21.853Z,8.75
2019-03-27T23:21:53.997Z,8.81
2019-03-27T23:24:25.770Z,8.86
2019-03-27T23:26:57.638Z,8.82
2019-03-27T23:29:29.442Z,8.82
2019-03-27T23:32:01.520Z,8.83
2019-03-27T23:34:35.139Z,8.81
2019-03-27T23:37:06.904Z,8.82
2019-03-27T23:39:38.762Z,8.82
2019-03-27T23:42:10.843Z,8.85
2019-03-27T23:44:42.994Z,8.85
2019-03-27T23:48:24.705Z,8.88
2019-03-27T23:50:56.473Z,8.84
2019-03-27T23:53:28.205Z,8.86
2019-03-27T23:56:01.028Z,8.92
2019-03-27T23:58:32.681Z,8.78
